Scf Baltica — A8IA5 — position and weather

sailwx.info

Track history (hours):
 
Tides and Currents Weather Stations Pressure Air Temp Water Temp Dewpoint Dewpoint Depression Visibility Wind Speed Wind Dir Waves Ship Positions

Scf Baltica

Last reported at 2017-Apr-29 03:26 UTC. Time now 2017-Apr-29 03:39 UTC.
Position N 52°11' E 003°33'.

Length 250 m; draft 13.9 m.

Type: Ship. MMSI: 636012813.

Date/timePositionNaut miles runAvg speedWind from/ knotsBaromVisibWave heightAir tempDewpointWater temp
2017-Apr-29 03:26N 52°11' E 003°33'0 0.0
2017-Apr-29 02:59N 52°11' E 003°33'0 0.0
2017-Apr-29 02:29N 52°11' E 003°33'0 0.2
2017-Apr-29 02:00N 52°11' E 003°33'0 0.3
2017-Apr-29 01:27N 52°11' E 003°33'0 0.0
2017-Apr-28 11:30N 52°11' E 003°33'0 0.0
2017-Apr-28 11:00N 52°11' E 003°33'0 0.0
2017-Apr-28 10:30N 52°11' E 003°33'0 0.0
2017-Apr-28 10:00N 52°11' E 003°33'0 0.0
2017-Apr-28 09:30N 52°11' E 003°33'0 0.0
2017-Apr-28 02:35N 52°11' E 003°33'262 6.3
2017-Apr-26 09:15N 56°13' E 006°26'412.5
2017-Apr-26 08:57N 56°16' E 006°30'612.4
2017-Apr-26 08:28N 56°21' E 006°35'15310.9
2017-Apr-25 18:24N 57°50' E 010°24'512.3
2017-Apr-25 18:00N 57°50' E 010°33'612.0
2017-Apr-25 17:30N 57°50' E 010°44'611.4
2017-Apr-25 16:59N 57°46' E 010°53'4 7.7
2017-Apr-25 16:30N 57°43' E 010°56'611.6
2017-Apr-25 16:00N 57°39' E 011°04'611.6
2017-Apr-25 15:31N 57°35' E 011°12'611.9
2017-Apr-25 15:00N 57°31' E 011°20'1211.8
2017-Apr-25 14:00N 57°21' E 011°31'612.1
2017-Apr-25 13:30N 57°15' E 011°35'612.3
2017-Apr-25 13:00N 57°09' E 011°39'11510.5
2017-Apr-25 02:03N 55°16' E 011°04'111.4
2017-Apr-25 01:58N 55°15' E 011°05'5 9.5
2017-Apr-25 01:23N 55°10' E 011°02'410.8
2017-Apr-25 01:00N 55°06' E 010°59'611.0
2017-Apr-25 00:30N 55°01' E 010°59'510.2
2017-Apr-25 00:00N 54°57' E 010°54'510.4
2017-Apr-24 23:31N 54°52' E 010°50'510.9
2017-Apr-24 23:01N 54°46' E 010°49'611.3
2017-Apr-24 22:30N 54°41' E 010°47'611.9
2017-Apr-24 22:00N 54°38' E 010°55'612.0
2017-Apr-24 21:30N 54°36' E 011°05'612.0
2017-Apr-24 21:00N 54°34' E 011°15'612.0
2017-Apr-24 20:30N 54°32' E 011°25'612.1
2017-Apr-24 20:01N 54°29' E 011°34'1611.5
2017-Apr-24 18:35N 54°26' E 012°02'111.7
2017-Apr-24 18:30N 54°26' E 012°03'510.5
2017-Apr-24 18:00N 54°28' E 012°12'611.9
2017-Apr-24 17:30N 54°34' E 012°15'5 9.4
2017-Apr-24 17:00N 54°38' E 012°19'4 8.8
2017-Apr-24 16:30N 54°40' E 012°26'4 7.4
2017-Apr-24 16:00N 54°42' E 012°31'38 9.9
2017-Apr-24 12:07N 54°57' E 013°32'111.7
2017-Apr-24 12:00N 54°58' E 013°35'611.5
2017-Apr-24 11:30N 54°60' E 013°44'611.5
2017-Apr-24 11:01N 55°02' E 013°53'611.4
2017-Apr-24 10:30N 55°03' E 014°03'611.1
2017-Apr-24 10:00N 55°07' E 014°10'611.4
2017-Apr-24 09:31N 55°12' E 014°16'611.6
2017-Apr-24 09:00N 55°17' E 014°22'611.9
2017-Apr-24 08:29N 55°22' E 014°27'611.7
2017-Apr-24 08:01N 55°27' E 014°33'611.8
2017-Apr-24 07:30N 55°30' E 014°42'611.9
2017-Apr-24 07:00N 55°32' E 014°51'612.0
2017-Apr-24 06:30N 55°35' E 015°01'612.1
2017-Apr-24 06:00N 55°37' E 015°11'35111.6
2017-Apr-22 23:47N 59°36' E 023°11'612.6
2017-Apr-22 23:19N 59°38' E 023°22'412.6
2017-Apr-22 23:00N 59°39' E 023°30'612.5
2017-Apr-22 22:30N 59°40' E 023°41'612.5
2017-Apr-22 22:00N 59°42' E 023°53'712.5
2017-Apr-22 21:28N 59°44' E 024°06'7412.4
2017-Apr-22 15:30N 60°01' E 026°29'612.3
2017-Apr-22 15:00N 60°01' E 026°41'612.6
2017-Apr-22 14:30N 59°60' E 026°54'1211.5
2017-Apr-22 13:30N 60°03' E 027°16'612.3
2017-Apr-22 13:00N 60°06' E 027°27'612.3
2017-Apr-22 12:30N 60°10' E 027°37'611.7
2017-Apr-22 12:00N 60°12' E 027°48'612.4
2017-Apr-22 11:30N 60°10' E 027°60'612.5
2017-Apr-22 11:00N 60°09' E 028°12'611.6
2017-Apr-22 10:30N 60°08' E 028°23'612.5
2017-Apr-22 10:00N 60°09' E 028°35'510.1
2017-Apr-22 09:30N 60°12' E 028°44'5 7.8
2017-Apr-22 08:55N 60°16' E 028°47'4 7.7
2017-Apr-22 08:21N 60°20' E 028°43'0 0.0
2017-Apr-21 06:29N 60°20' E 028°43'2 3.2
2017-Apr-21 05:50N 60°18' E 028°44'3 9.4
2017-Apr-21 05:31N 60°16' E 028°48'4 8.1
2017-Apr-21 05:01N 60°12' E 028°46'3 5.3
2017-Apr-21 04:30N 60°10' E 028°42'2 4.1
2017-Apr-21 04:00N 60°09' E 028°38'2 3.3
2017-Apr-21 03:30N 60°08' E 028°35'3 5.7
2017-Apr-21 03:00N 60°07' E 028°30'4 7.3
2017-Apr-21 02:30N 60°05' E 028°24'5 9.6
2017-Apr-21 02:00N 60°07' E 028°15'510.0
2017-Apr-21 01:30N 60°09' E 028°05'5 9.9
2017-Apr-21 01:00N 60°10' E 027°55'5 9.0
2017-Apr-21 00:30N 60°10' E 027°46'510.1
2017-Apr-21 00:00N 60°08' E 027°38'510.1
2017-Apr-20 23:29N 60°05' E 027°29'510.2
2017-Apr-20 23:00N 60°02' E 027°20'510.2
2017-Apr-20 22:30N 60°00' E 027°11'3 0.7
2017-Apr-20 18:17N 60°02' E 027°06'0 0.1
2017-Apr-20 17:47N 60°02' E 027°06'0 0.1
2017-Apr-20 17:11N 60°02' E 027°06'0 0.0
2017-Apr-20 16:38N 60°02' E 027°06'0 0.0
2017-Apr-20 14:53N 60°02' E 027°06'0 0.1
2017-Apr-20 14:26N 60°02' E 027°06'0 0.0
2017-Apr-20 13:23N 60°02' E 027°06'0 0.1
2017-Apr-20 12:41N 60°02' E 027°06'0 0.0
2017-Apr-20 12:26N 60°02' E 027°06'0 0.0
2017-Apr-20 11:26N 60°02' E 027°06'0 0.0
2017-Apr-20 10:56N 60°02' E 027°06'0 0.0
2017-Apr-20 10:29N 60°02' E 027°06'0 0.0
2017-Apr-20 09:59N 60°02' E 027°06'0 0.0
2017-Apr-20 09:29N 60°02' E 027°06'0 0.0
2017-Apr-20 08:56N 60°02' E 027°06'0 0.0
2017-Apr-20 08:29N 60°02' E 027°06'0 0.0
2017-Apr-20 07:47N 60°02' E 027°06'0 0.0
2017-Apr-20 07:29N 60°02' E 027°06'0 0.0
2017-Apr-20 06:59N 60°02' E 027°06'0 0.1
2017-Apr-20 06:29N 60°02' E 027°06'0 0.0
2017-Apr-20 05:59N 60°02' E 027°06'0 0.0
2017-Apr-20 05:29N 60°02' E 027°06'0 0.0
2017-Apr-20 02:05N 60°02' E 027°06'0 0.0
2017-Apr-20 01:38N 60°02' E 027°06'0 0.0
2017-Apr-20 00:41N 60°02' E 027°06'0 0.0
2017-Apr-20 00:26N 60°02' E 027°06'0 0.0
2017-Apr-19 23:56N 60°02' E 027°06'0 0.0
2017-Apr-19 23:26N 60°02' E 027°06'0 0.0
2017-Apr-19 22:53N 60°02' E 027°06'0 0.1
2017-Apr-19 22:26N 60°02' E 027°06'0 0.0
2017-Apr-19 20:56N 60°02' E 027°06'0 0.0
2017-Apr-19 19:59N 60°02' E 027°06'0 0.0
2017-Apr-19 19:14N 60°02' E 027°06'0 0.0
2017-Apr-19 18:59N 60°02' E 027°06'0 0.0
2017-Apr-19 18:29N 60°02' E 027°06'0 0.0
2017-Apr-19 17:59N 60°02' E 027°06'0 0.0
2017-Apr-19 17:14N 60°02' E 027°06'0 0.0
2017-Apr-19 16:59N 60°02' E 027°06'0 0.0
2017-Apr-19 16:29N 60°02' E 027°06'0 0.0
2017-Apr-19 15:59N 60°02' E 027°06'0 0.0
2017-Apr-19 15:29N 60°02' E 027°06'0 0.0
2017-Apr-19 14:50N 60°02' E 027°06'0 0.0
2017-Apr-19 14:20N 60°02' E 027°06'0 0.0
2017-Apr-19 13:23N 60°02' E 027°06'  
Track history (hours):
 
Tides and Currents Weather Stations Pressure Air Temp Water Temp Dewpoint Dewpoint Depression Visibility Wind Speed Wind Dir Waves Ship Positions

Scf Baltica

Last reported at 2017-Apr-29 03:26 UTC. Time now 2017-Apr-29 03:39 UTC.
Position N 52°11' E 003°33'.

Length 250 m; draft 13.9 m.

Type: Ship. MMSI: 636012813.

Date/timePositionNaut miles runAvg speedWind from/ knotsBaromVisibWave heightAir tempDewpointWater temp
2017-Apr-29 03:26N 52°11' E 003°33'0 0.0
2017-Apr-29 02:59N 52°11' E 003°33'0 0.0
2017-Apr-29 02:29N 52°11' E 003°33'0 0.2
2017-Apr-29 02:00N 52°11' E 003°33'0 0.3
2017-Apr-29 01:27N 52°11' E 003°33'0 0.0
2017-Apr-28 11:30N 52°11' E 003°33'0 0.0
2017-Apr-28 11:00N 52°11' E 003°33'0 0.0
2017-Apr-28 10:30N 52°11' E 003°33'0 0.0
2017-Apr-28 10:00N 52°11' E 003°33'0 0.0
2017-Apr-28 09:30N 52°11' E 003°33'0 0.0
2017-Apr-28 02:35N 52°11' E 003°33'262 6.3
2017-Apr-26 09:15N 56°13' E 006°26'412.5
2017-Apr-26 08:57N 56°16' E 006°30'612.4
2017-Apr-26 08:28N 56°21' E 006°35'15310.9
2017-Apr-25 18:24N 57°50' E 010°24'512.3
2017-Apr-25 18:00N 57°50' E 010°33'612.0
2017-Apr-25 17:30N 57°50' E 010°44'611.4
2017-Apr-25 16:59N 57°46' E 010°53'4 7.7
2017-Apr-25 16:30N 57°43' E 010°56'611.6
2017-Apr-25 16:00N 57°39' E 011°04'611.6
2017-Apr-25 15:31N 57°35' E 011°12'611.9
2017-Apr-25 15:00N 57°31' E 011°20'1211.8
2017-Apr-25 14:00N 57°21' E 011°31'612.1
2017-Apr-25 13:30N 57°15' E 011°35'612.3
2017-Apr-25 13:00N 57°09' E 011°39'11510.5
2017-Apr-25 02:03N 55°16' E 011°04'111.4
2017-Apr-25 01:58N 55°15' E 011°05'5 9.5
2017-Apr-25 01:23N 55°10' E 011°02'410.8
2017-Apr-25 01:00N 55°06' E 010°59'611.0
2017-Apr-25 00:30N 55°01' E 010°59'510.2
2017-Apr-25 00:00N 54°57' E 010°54'510.4
2017-Apr-24 23:31N 54°52' E 010°50'510.9
2017-Apr-24 23:01N 54°46' E 010°49'611.3
2017-Apr-24 22:30N 54°41' E 010°47'611.9
2017-Apr-24 22:00N 54°38' E 010°55'612.0
2017-Apr-24 21:30N 54°36' E 011°05'612.0
2017-Apr-24 21:00N 54°34' E 011°15'612.0
2017-Apr-24 20:30N 54°32' E 011°25'612.1
2017-Apr-24 20:01N 54°29' E 011°34'1611.5
2017-Apr-24 18:35N 54°26' E 012°02'111.7
2017-Apr-24 18:30N 54°26' E 012°03'510.5
2017-Apr-24 18:00N 54°28' E 012°12'611.9
2017-Apr-24 17:30N 54°34' E 012°15'5 9.4
2017-Apr-24 17:00N 54°38' E 012°19'4 8.8
2017-Apr-24 16:30N 54°40' E 012°26'4 7.4
2017-Apr-24 16:00N 54°42' E 012°31'38 9.9
2017-Apr-24 12:07N 54°57' E 013°32'111.7
2017-Apr-24 12:00N 54°58' E 013°35'611.5
2017-Apr-24 11:30N 54°60' E 013°44'611.5
2017-Apr-24 11:01N 55°02' E 013°53'611.4
2017-Apr-24 10:30N 55°03' E 014°03'611.1
2017-Apr-24 10:00N 55°07' E 014°10'611.4
2017-Apr-24 09:31N 55°12' E 014°16'611.6
2017-Apr-24 09:00N 55°17' E 014°22'611.9
2017-Apr-24 08:29N 55°22' E 014°27'611.7
2017-Apr-24 08:01N 55°27' E 014°33'611.8
2017-Apr-24 07:30N 55°30' E 014°42'611.9
2017-Apr-24 07:00N 55°32' E 014°51'612.0
2017-Apr-24 06:30N 55°35' E 015°01'612.1
2017-Apr-24 06:00N 55°37' E 015°11'35111.6
2017-Apr-22 23:47N 59°36' E 023°11'612.6
2017-Apr-22 23:19N 59°38' E 023°22'412.6
2017-Apr-22 23:00N 59°39' E 023°30'612.5
2017-Apr-22 22:30N 59°40' E 023°41'612.5
2017-Apr-22 22:00N 59°42' E 023°53'712.5
2017-Apr-22 21:28N 59°44' E 024°06'7412.4
2017-Apr-22 15:30N 60°01' E 026°29'612.3
2017-Apr-22 15:00N 60°01' E 026°41'612.6
2017-Apr-22 14:30N 59°60' E 026°54'1211.5
2017-Apr-22 13:30N 60°03' E 027°16'612.3
2017-Apr-22 13:00N 60°06' E 027°27'612.3
2017-Apr-22 12:30N 60°10' E 027°37'611.7
2017-Apr-22 12:00N 60°12' E 027°48'612.4
2017-Apr-22 11:30N 60°10' E 027°60'612.5
2017-Apr-22 11:00N 60°09' E 028°12'611.6
2017-Apr-22 10:30N 60°08' E 028°23'612.5
2017-Apr-22 10:00N 60°09' E 028°35'510.1
2017-Apr-22 09:30N 60°12' E 028°44'5 7.8
2017-Apr-22 08:55N 60°16' E 028°47'4 7.7
2017-Apr-22 08:21N 60°20' E 028°43'0 0.0
2017-Apr-21 06:29N 60°20' E 028°43'2 3.2
2017-Apr-21 05:50N 60°18' E 028°44'3 9.4
2017-Apr-21 05:31N 60°16' E 028°48'4 8.1
2017-Apr-21 05:01N 60°12' E 028°46'3 5.3
2017-Apr-21 04:30N 60°10' E 028°42'2 4.1
2017-Apr-21 04:00N 60°09' E 028°38'2 3.3
2017-Apr-21 03:30N 60°08' E 028°35'3 5.7
2017-Apr-21 03:00N 60°07' E 028°30'4 7.3
2017-Apr-21 02:30N 60°05' E 028°24'5 9.6
2017-Apr-21 02:00N 60°07' E 028°15'510.0
2017-Apr-21 01:30N 60°09' E 028°05'5 9.9
2017-Apr-21 01:00N 60°10' E 027°55'5 9.0
2017-Apr-21 00:30N 60°10' E 027°46'510.1
2017-Apr-21 00:00N 60°08' E 027°38'510.1
2017-Apr-20 23:29N 60°05' E 027°29'510.2
2017-Apr-20 23:00N 60°02' E 027°20'510.2
2017-Apr-20 22:30N 60°00' E 027°11'3 0.7
2017-Apr-20 18:17N 60°02' E 027°06'0 0.1
2017-Apr-20 17:47N 60°02' E 027°06'0 0.1
2017-Apr-20 17:11N 60°02' E 027°06'0 0.0
2017-Apr-20 16:38N 60°02' E 027°06'0 0.0
2017-Apr-20 14:53N 60°02' E 027°06'0 0.1
2017-Apr-20 14:26N 60°02' E 027°06'0 0.0
2017-Apr-20 13:23N 60°02' E 027°06'0 0.1
2017-Apr-20 12:41N 60°02' E 027°06'0 0.0
2017-Apr-20 12:26N 60°02' E 027°06'0 0.0
2017-Apr-20 11:26N 60°02' E 027°06'0 0.0
2017-Apr-20 10:56N 60°02' E 027°06'0 0.0
2017-Apr-20 10:29N 60°02' E 027°06'0 0.0
2017-Apr-20 09:59N 60°02' E 027°06'0 0.0
2017-Apr-20 09:29N 60°02' E 027°06'0 0.0
2017-Apr-20 08:56N 60°02' E 027°06'0 0.0
2017-Apr-20 08:29N 60°02' E 027°06'0 0.0
2017-Apr-20 07:47N 60°02' E 027°06'0 0.0
2017-Apr-20 07:29N 60°02' E 027°06'0 0.0
2017-Apr-20 06:59N 60°02' E 027°06'0 0.1
2017-Apr-20 06:29N 60°02' E 027°06'0 0.0
2017-Apr-20 05:59N 60°02' E 027°06'0 0.0
2017-Apr-20 05:29N 60°02' E 027°06'0 0.0
2017-Apr-20 02:05N 60°02' E 027°06'0 0.0
2017-Apr-20 01:38N 60°02' E 027°06'0 0.0
2017-Apr-20 00:41N 60°02' E 027°06'0 0.0
2017-Apr-20 00:26N 60°02' E 027°06'0 0.0
2017-Apr-19 23:56N 60°02' E 027°06'0 0.0
2017-Apr-19 23:26N 60°02' E 027°06'0 0.0
2017-Apr-19 22:53N 60°02' E 027°06'0 0.1
2017-Apr-19 22:26N 60°02' E 027°06'0 0.0
2017-Apr-19 20:56N 60°02' E 027°06'0 0.0
2017-Apr-19 19:59N 60°02' E 027°06'0 0.0
2017-Apr-19 19:14N 60°02' E 027°06'0 0.0
2017-Apr-19 18:59N 60°02' E 027°06'0 0.0
2017-Apr-19 18:29N 60°02' E 027°06'0 0.0
2017-Apr-19 17:59N 60°02' E 027°06'0 0.0
2017-Apr-19 17:14N 60°02' E 027°06'0 0.0
2017-Apr-19 16:59N 60°02' E 027°06'0 0.0
2017-Apr-19 16:29N 60°02' E 027°06'0 0.0
2017-Apr-19 15:59N 60°02' E 027°06'0 0.0
2017-Apr-19 15:29N 60°02' E 027°06'0 0.0
2017-Apr-19 14:50N 60°02' E 027°06'0 0.0
2017-Apr-19 14:20N 60°02' E 027°06'0 0.0
2017-Apr-19 13:23N 60°02' E 027°06'  

Dump ship's entire track history